VOZ238A YPAD-YMML
Flight info
| Callsign | VOZ238A |
|---|---|
| Flight time | N/A |
| Altitude | 37000 |
| Route | BENDO3/05 BENDO Y12 ARBEY |
| Aircraft | B738/M-SAE3DGHIM1RWZ/LB1 |
Departure
| Time | N/A |
|---|---|
| Airport | Adelaide International Airport (YPAD) |
Arrival
| Time | 2026-05-01 10:45 |
|---|---|
| Airport | Melbourne Airport (YMML) |
| Time | Latitude | Longitude | Altitude | Speed | Heading |
|---|---|---|---|---|---|
| 2026-05-01 09:50 | -35.09081 | 139.00005 | 12994 ft | 378 kts | 105° |
| 2026-05-01 09:50 | -35.09962 | 139.03047 | 13662 ft | 383 kts | 105° |
| 2026-05-01 09:50 | -35.10869 | 139.06126 | 14284 ft | 388 kts | 106° |
| 2026-05-01 09:51 | -35.11797 | 139.09237 | 14913 ft | 392 kts | 106° |
| 2026-05-01 09:51 | -35.12739 | 139.12377 | 15562 ft | 396 kts | 107° |
| 2026-05-01 09:51 | -35.13693 | 139.15551 | 16196 ft | 400 kts | 107° |
| 2026-05-01 09:51 | -35.14659 | 139.18759 | 16829 ft | 405 kts | 107° |
| 2026-05-01 09:52 | -35.15635 | 139.22004 | 17449 ft | 410 kts | 107° |
| 2026-05-01 09:52 | -35.16623 | 139.25294 | 18052 ft | 414 kts | 107° |
| 2026-05-01 09:52 | -35.17620 | 139.28616 | 18611 ft | 419 kts | 107° |
| 2026-05-01 09:52 | -35.18285 | 139.30834 | 18968 ft | 421 kts | 108° |
| 2026-05-01 09:53 | -35.19639 | 139.35358 | 19703 ft | 426 kts | 108° |
| 2026-05-01 09:53 | -35.20659 | 139.38772 | 20258 ft | 429 kts | 108° |
| 2026-05-01 09:53 | -35.21686 | 139.42213 | 20775 ft | 433 kts | 108° |
| 2026-05-01 09:53 | -35.22723 | 139.45691 | 21296 ft | 437 kts | 108° |
| 2026-05-01 09:54 | -35.23761 | 139.49175 | 21785 ft | 441 kts | 108° |
| 2026-05-01 09:54 | -35.24852 | 139.52701 | 22273 ft | 445 kts | 110° |
| 2026-05-01 09:54 | -35.25658 | 139.55014 | 22610 ft | 448 kts | 112° |
| 2026-05-01 09:54 | -35.27399 | 139.59669 | 23269 ft | 452 kts | 114° |
| 2026-05-01 09:55 | -35.28746 | 139.63169 | 23708 ft | 456 kts | 114° |
| 2026-05-01 09:55 | -35.29644 | 139.65502 | 23971 ft | 459 kts | 114° |
| 2026-05-01 09:55 | -35.31437 | 139.70202 | 24509 ft | 462 kts | 113° |
| 2026-05-01 09:55 | -35.32787 | 139.73785 | 24916 ft | 464 kts | 113° |
| 2026-05-01 09:56 | -35.34134 | 139.77391 | 25294 ft | 467 kts | 113° |
| 2026-05-01 09:56 | -35.35484 | 139.81024 | 25678 ft | 470 kts | 113° |
| 2026-05-01 09:56 | -35.36839 | 139.84687 | 26055 ft | 473 kts | 112° |
| 2026-05-01 09:56 | -35.38199 | 139.88369 | 26436 ft | 476 kts | 112° |
| 2026-05-01 09:57 | -35.39122 | 139.90871 | 26682 ft | 477 kts | 112° |
| 2026-05-01 09:57 | -35.40937 | 139.95798 | 27153 ft | 481 kts | 112° |
| 2026-05-01 09:57 | -35.41848 | 139.98273 | 27389 ft | 482 kts | 113° |
| 2026-05-01 09:57 | -35.43699 | 140.03303 | 27884 ft | 485 kts | 113° |
| 2026-05-01 09:58 | -35.44617 | 140.05802 | 28104 ft | 487 kts | 113° |
| 2026-05-01 09:58 | -35.46011 | 140.09599 | 28432 ft | 490 kts | 113° |
| 2026-05-01 09:58 | -35.47413 | 140.13422 | 28749 ft | 492 kts | 112° |
| 2026-05-01 09:58 | -35.48818 | 140.17258 | 29076 ft | 495 kts | 112° |
| 2026-05-01 09:59 | -35.50230 | 140.21119 | 29419 ft | 496 kts | 112° |
| 2026-05-01 09:59 | -35.51640 | 140.24977 | 29849 ft | 496 kts | 112° |
| 2026-05-01 09:59 | -35.53053 | 140.28849 | 30138 ft | 498 kts | 112° |
| 2026-05-01 09:59 | -35.54472 | 140.32742 | 30351 ft | 501 kts | 112° |
| 2026-05-01 10:00 | -35.55895 | 140.36652 | 30657 ft | 501 kts | 112° |
| 2026-05-01 10:00 | -35.57314 | 140.40556 | 31036 ft | 500 kts | 112° |
| 2026-05-01 10:00 | -35.58727 | 140.44446 | 31455 ft | 497 kts | 112° |
| 2026-05-01 10:00 | -35.60132 | 140.48319 | 31860 ft | 495 kts | 112° |
| 2026-05-01 10:01 | -35.61531 | 140.52183 | 32177 ft | 495 kts | 112° |
| 2026-05-01 10:01 | -35.62933 | 140.56057 | 32471 ft | 496 kts | 112° |
| 2026-05-01 10:01 | -35.64331 | 140.59928 | 32796 ft | 495 kts | 112° |
| 2026-05-01 10:01 | -35.65727 | 140.63797 | 33148 ft | 494 kts | 112° |
| 2026-05-01 10:02 | -35.67117 | 140.67655 | 33495 ft | 493 kts | 113° |
| 2026-05-01 10:02 | -35.68503 | 140.71506 | 33819 ft | 493 kts | 113° |
| 2026-05-01 10:02 | -35.69889 | 140.75364 | 34123 ft | 493 kts | 113° |
| 2026-05-01 10:02 | -35.71273 | 140.79217 | 34386 ft | 492 kts | 113° |
| 2026-05-01 10:03 | -35.72657 | 140.83076 | 34619 ft | 493 kts | 112° |
| 2026-05-01 10:03 | -35.74039 | 140.86933 | 34858 ft | 493 kts | 112° |
| 2026-05-01 10:04 | -35.79562 | 141.02402 | 35876 ft | 491 kts | 112° |
| 2026-05-01 10:04 | -35.80934 | 141.06258 | 36099 ft | 492 kts | 112° |
| 2026-05-01 10:04 | -35.82308 | 141.10122 | 36281 ft | 493 kts | 112° |
| 2026-05-01 10:05 | -35.83682 | 141.13992 | 36435 ft | 494 kts | 112° |
| 2026-05-01 10:05 | -35.85060 | 141.17880 | 36617 ft | 495 kts | 112° |
| 2026-05-01 10:05 | -35.86438 | 141.21769 | 36843 ft | 495 kts | 112° |
| 2026-05-01 10:05 | -35.87812 | 141.25652 | 37077 ft | 494 kts | 112° |
| 2026-05-01 10:06 | -35.90572 | 141.33470 | 37111 ft | 498 kts | 112° |
| 2026-05-01 10:06 | -35.93319 | 141.41270 | 37100 ft | 494 kts | 112° |
| 2026-05-01 10:07 | -35.96021 | 141.48962 | 37112 ft | 490 kts | 112° |
| 2026-05-01 10:07 | -35.98720 | 141.56664 | 37117 ft | 488 kts | 112° |
| 2026-05-01 10:08 | -36.02735 | 141.68161 | 37126 ft | 487 kts | 112° |
| 2026-05-01 10:09 | -36.05415 | 141.75859 | 37128 ft | 489 kts | 112° |
| 2026-05-01 10:09 | -36.08102 | 141.83594 | 37135 ft | 491 kts | 112° |
| 2026-05-01 10:10 | -36.10784 | 141.91339 | 37135 ft | 493 kts | 112° |
| 2026-05-01 10:10 | -36.14834 | 142.03070 | 37139 ft | 496 kts | 112° |
| 2026-05-01 10:11 | -36.17539 | 142.10929 | 37138 ft | 497 kts | 112° |
| 2026-05-01 10:11 | -36.20237 | 142.18804 | 37138 ft | 497 kts | 111° |
| 2026-05-01 10:12 | -36.22931 | 142.26700 | 37140 ft | 497 kts | 111° |
| 2026-05-01 10:13 | -36.26950 | 142.38516 | 37141 ft | 495 kts | 111° |
| 2026-05-01 10:13 | -36.29613 | 142.46373 | 37142 ft | 493 kts | 111° |
| 2026-05-01 10:14 | -36.33562 | 142.58062 | 37155 ft | 490 kts | 111° |
| 2026-05-01 10:14 | -36.36186 | 142.65855 | 37153 ft | 489 kts | 111° |
| 2026-05-01 10:15 | -36.38798 | 142.73635 | 37150 ft | 488 kts | 111° |
| 2026-05-01 10:15 | -36.41400 | 142.81405 | 37159 ft | 487 kts | 111° |
| 2026-05-01 10:16 | -36.43989 | 142.89149 | 36950 ft | 490 kts | 111° |
| 2026-05-01 10:16 | -36.46609 | 142.96976 | 35837 ft | 489 kts | 110° |
| 2026-05-01 10:17 | -36.47916 | 143.00880 | 35185 ft | 489 kts | 110° |
| 2026-05-01 10:17 | -36.50524 | 143.08698 | 33842 ft | 489 kts | 110° |
| 2026-05-01 10:17 | -36.51826 | 143.12611 | 33118 ft | 489 kts | 110° |
| 2026-05-01 10:18 | -36.54389 | 143.20329 | 32186 ft | 478 kts | 110° |
| 2026-05-01 10:18 | -36.55649 | 143.24132 | 31726 ft | 473 kts | 110° |
| 2026-05-01 10:18 | -36.56895 | 143.27896 | 31262 ft | 468 kts | 110° |
| 2026-05-01 10:19 | -36.58124 | 143.31617 | 30816 ft | 463 kts | 110° |
| 2026-05-01 10:19 | -36.59342 | 143.35310 | 30369 ft | 459 kts | 110° |
| 2026-05-01 10:19 | -36.60547 | 143.38967 | 29864 ft | 455 kts | 110° |
| 2026-05-01 10:20 | -36.62898 | 143.46112 | 28963 ft | 444 kts | 110° |
| 2026-05-01 10:20 | -36.64061 | 143.49652 | 28511 ft | 439 kts | 110° |
| 2026-05-01 10:20 | -36.65193 | 143.53104 | 28068 ft | 434 kts | 110° |
| 2026-05-01 10:20 | -36.66330 | 143.56575 | 27645 ft | 433 kts | 110° |
| 2026-05-01 10:21 | -36.67470 | 143.60064 | 27201 ft | 438 kts | 110° |
| 2026-05-01 10:21 | -36.69750 | 143.67046 | 26308 ft | 431 kts | 110° |
| 2026-05-01 10:21 | -36.70875 | 143.70493 | 25876 ft | 427 kts | 109° |
| 2026-05-01 10:22 | -36.73086 | 143.77285 | 25007 ft | 420 kts | 109° |
| 2026-05-01 10:22 | -36.75254 | 143.83962 | 24173 ft | 416 kts | 109° |
| 2026-05-01 10:23 | -36.76334 | 143.87294 | 23748 ft | 413 kts | 109° |
| 2026-05-01 10:23 | -36.78479 | 143.93926 | 22822 ft | 411 kts | 109° |
| 2026-05-01 10:23 | -36.79544 | 143.97224 | 22390 ft | 408 kts | 109° |
| 2026-05-01 10:24 | -36.81638 | 144.03715 | 21541 ft | 399 kts | 109° |
| 2026-05-01 10:24 | -36.83690 | 144.10093 | 20713 ft | 393 kts | 109° |
| 2026-05-01 10:25 | -36.85709 | 144.16385 | 19891 ft | 392 kts | 109° |
| 2026-05-01 10:25 | -36.87721 | 144.22670 | 19082 ft | 388 kts | 109° |
| 2026-05-01 10:26 | -36.88718 | 144.25788 | 18669 ft | 385 kts | 109° |
| 2026-05-01 10:26 | -36.89708 | 144.28887 | 18236 ft | 383 kts | 109° |
| 2026-05-01 10:26 | -36.91665 | 144.35018 | 17380 ft | 376 kts | 109° |
| 2026-05-01 10:27 | -36.94142 | 144.40670 | 16560 ft | 375 kts | 127° |
| 2026-05-01 10:27 | -36.96541 | 144.44120 | 15988 ft | 371 kts | 130° |
| 2026-05-01 10:28 | -36.96938 | 144.44678 | 15902 ft | 370 kts | 130° |
| 2026-05-01 10:28 | -37.00325 | 144.49443 | 15117 ft | 365 kts | 129° |
| 2026-05-01 10:28 | -37.01998 | 144.51823 | 14704 ft | 363 kts | 129° |
| 2026-05-01 10:29 | -37.05296 | 144.56557 | 13921 ft | 359 kts | 129° |
| 2026-05-01 10:29 | -37.06929 | 144.58911 | 13484 ft | 357 kts | 129° |
| 2026-05-01 10:30 | -37.10158 | 144.63578 | 12669 ft | 352 kts | 128° |
| 2026-05-01 10:30 | -37.13348 | 144.68191 | 11880 ft | 348 kts | 128° |
| 2026-05-01 10:31 | -37.16638 | 144.72595 | 11225 ft | 347 kts | 144° |
| 2026-05-01 10:31 | -37.21200 | 144.74466 | 10787 ft | 349 kts | 169° |
| 2026-05-01 10:32 | -37.25997 | 144.75639 | 10191 ft | 349 kts | 169° |
| 2026-05-01 10:32 | -37.28374 | 144.76247 | 9777 ft | 347 kts | 168° |
| 2026-05-01 10:32 | -37.33071 | 144.77480 | 8981 ft | 342 kts | 168° |
| 2026-05-01 10:33 | -37.37630 | 144.78353 | 8493 ft | 338 kts | 173° |
| 2026-05-01 10:33 | -37.42228 | 144.79117 | 8011 ft | 338 kts | 172° |
| 2026-05-01 10:34 | -37.44548 | 144.79521 | 7770 ft | 340 kts | 173° |
| 2026-05-01 10:34 | -37.46899 | 144.79502 | 7489 ft | 339 kts | 195° |
| 2026-05-01 10:34 | -37.49113 | 144.78545 | 7278 ft | 335 kts | 204° |
| 2026-05-01 10:35 | -37.53458 | 144.76408 | 6781 ft | 335 kts | 203° |
| 2026-05-01 10:35 | -37.55635 | 144.75364 | 6527 ft | 335 kts | 203° |
| 2026-05-01 10:35 | -37.57817 | 144.74331 | 6272 ft | 335 kts | 202° |
| 2026-05-01 10:35 | -37.60067 | 144.73591 | 5999 ft | 335 kts | 186° |
| 2026-05-01 10:36 | -37.64690 | 144.73372 | 5527 ft | 329 kts | 182° |
| 2026-05-01 10:36 | -37.66936 | 144.73244 | 5278 ft | 322 kts | 182° |
| 2026-05-01 10:36 | -37.69154 | 144.73095 | 5034 ft | 316 kts | 183° |
| 2026-05-01 10:37 | -37.71306 | 144.72952 | 4793 ft | 306 kts | 182° |
| 2026-05-01 10:37 | -37.75389 | 144.72894 | 4344 ft | 282 kts | 179° |
| 2026-05-01 10:37 | -37.76669 | 144.72889 | 4208 ft | 275 kts | 180° |
| 2026-05-01 10:38 | -37.77909 | 144.72878 | 4082 ft | 272 kts | 180° |
| 2026-05-01 10:38 | -37.78563 | 144.72871 | 4010 ft | 270 kts | 180° |
| 2026-05-01 10:38 | -37.80312 | 144.72894 | 3830 ft | 268 kts | 171° |
| 2026-05-01 10:38 | -37.82001 | 144.73753 | 3630 ft | 261 kts | 136° |
| 2026-05-01 10:39 | -37.83150 | 144.75437 | 3467 ft | 249 kts | 116° |
| 2026-05-01 10:39 | -37.83959 | 144.77313 | 3271 ft | 237 kts | 110° |
| 2026-05-01 10:39 | -37.84325 | 144.79207 | 3082 ft | 215 kts | 81° |
| 2026-05-01 10:39 | -37.84160 | 144.80990 | 2973 ft | 196 kts | 75° |
| 2026-05-01 10:40 | -37.83963 | 144.82649 | 2810 ft | 189 kts | 74° |
| 2026-05-01 10:40 | -37.83767 | 144.84259 | 2676 ft | 185 kts | 73° |
| 2026-05-01 10:40 | -37.83259 | 144.85671 | 2513 ft | 170 kts | 39° |
| 2026-05-01 10:40 | -37.82294 | 144.86367 | 2413 ft | 154 kts | 15° |
| 2026-05-01 10:41 | -37.81254 | 144.86409 | 2295 ft | 150 kts | 355° |
| 2026-05-01 10:41 | -37.80224 | 144.86232 | 2162 ft | 148 kts | 357° |
| 2026-05-01 10:41 | -37.78145 | 144.85868 | 1796 ft | 152 kts | 356° |
| 2026-05-01 10:42 | -37.77131 | 144.85683 | 1637 ft | 141 kts | 356° |
| 2026-05-01 10:42 | -37.76229 | 144.85514 | 1635 ft | 125 kts | 357° |
| 2026-05-01 10:42 | -37.75379 | 144.85357 | 1640 ft | 122 kts | 357° |
| 2026-05-01 10:42 | -37.74522 | 144.85203 | 1487 ft | 127 kts | 356° |
| 2026-05-01 10:43 | -37.73633 | 144.85044 | 1342 ft | 132 kts | 355° |
| 2026-05-01 10:43 | -37.73018 | 144.84932 | 1233 ft | 138 kts | 355° |
| 2026-05-01 10:43 | -37.71732 | 144.84692 | 998 ft | 139 kts | 353° |
| 2026-05-01 10:43 | -37.70780 | 144.84507 | 820 ft | 138 kts | 352° |
| 2026-05-01 10:44 | -37.70155 | 144.84380 | 687 ft | 136 kts | 354° |
| 2026-05-01 10:44 | -37.69224 | 144.84211 | 521 ft | 138 kts | 355° |
| 2026-05-01 10:44 | -37.68248 | 144.84035 | 360 ft | 139 kts | 354° |
| 2026-05-01 10:44 | -37.67209 | 144.83845 | 379 ft | 70 kts | 352° |
| 2026-05-01 10:45 | -37.66881 | 144.83893 | 389 ft | 22 kts | 22° |
| 2026-05-01 10:45 | -37.66804 | 144.83964 | 391 ft | 13 kts | 96° |
| 2026-05-01 10:45 | -37.66881 | 144.84000 | 388 ft | 12 kts | 172° |
| 2026-05-01 10:45 | -37.66937 | 144.84010 | 386 ft | 13 kts | 172° |
| 2026-05-01 10:46 | -37.67030 | 144.84029 | 383 ft | 14 kts | 167° |
| 2026-05-01 10:46 | -37.67131 | 144.84047 | 380 ft | 14 kts | 172° |
| 2026-05-01 10:46 | -37.67242 | 144.84070 | 377 ft | 18 kts | 169° |
| 2026-05-01 10:46 | -37.67327 | 144.84082 | 375 ft | 0 kts | 172° |
| 2026-05-01 10:47 | -37.67333 | 144.84083 | 375 ft | 2 kts | 172° |
| 2026-05-01 10:47 | -37.67345 | 144.84085 | 374 ft | 0 kts | 172° |
| 2026-05-01 10:49 | -37.67389 | 144.84094 | 373 ft | 12 kts | 171° |
| 2026-05-01 10:49 | -37.67483 | 144.84129 | 371 ft | 15 kts | 132° |
| 2026-05-01 10:49 | -37.67494 | 144.84237 | 372 ft | 12 kts | 82° |
| 2026-05-01 10:50 | -37.67468 | 144.84460 | 377 ft | 12 kts | 81° |
| 2026-05-01 10:50 | -37.67457 | 144.84549 | 378 ft | 11 kts | 81° |
| 2026-05-01 10:50 | -37.67446 | 144.84639 | 380 ft | 10 kts | 81° |
| 2026-05-01 10:50 | -37.67441 | 144.84689 | 381 ft | 9 kts | 82° |
| 2026-05-01 10:51 | -37.67424 | 144.84733 | 381 ft | 9 kts | 49° |
| 2026-05-01 10:51 | -37.67409 | 144.84751 | 382 ft | 9 kts | 35° |
| 2026-05-01 10:51 | -37.67373 | 144.84773 | 383 ft | 1 kts | 23° |
| 2026-05-01 10:51 | -37.67367 | 144.84776 | 383 ft | 1 kts | 23° |
| 2026-05-01 10:52 | -37.67362 | 144.84778 | 383 ft | 1 kts | 23° |
| 2026-05-01 10:52 | -37.67354 | 144.84783 | 384 ft | 2 kts | 23° |
| 2026-05-01 10:52 | -37.67345 | 144.84788 | 384 ft | 1 kts | 23° |
| 2026-05-01 10:52 | -37.67340 | 144.84791 | 384 ft | 0 kts | 23° |
| 2026-05-01 10:53 | -37.67338 | 144.84792 | 384 ft | 0 kts | 23° |
| 2026-05-01 10:53 | -37.67337 | 144.84792 | 384 ft | 0 kts | 23° |